RoSS Sea — WDE3122 — position and weather

sailwx.info

Track history (hours):
 
Tides and Currents Weather Stations Pressure Air Temp Water Temp Dewpoint Dewpoint Depression Visibility Wind Speed Wind Dir Waves Ship Positions

RoSS Sea

Owner: Kirby Inland Marine, LP, Houston, TX. More information available from US FCC via Universal Licensing System and Coast Guard Vessel Documentation Center.

Last reported at 2014-Oct-02 01:34 UTC. Time now 2014-Oct-02 02:33 UTC.
Position N 40°39' W 074°10'.

Length 30 m; draft 5 m.

Type: Towing. MMSI: 367334360.

Date/timePositionNaut miles runAvg speedWind from/ knotsBaromVisibWave heightAir tempDewpointWater temp
2014-Oct-02 01:34N 40°39' W 074°10'0 0.0
2014-Oct-02 00:34N 40°39' W 074°10'0 0.0
2014-Oct-01 23:33N 40°39' W 074°10'0 0.0
2014-Oct-01 22:34N 40°39' W 074°10'0 0.0
2014-Oct-01 21:34N 40°39' W 074°10'2 1.7
2014-Oct-01 20:33N 40°39' W 074°08'3 2.9
2014-Oct-01 19:33N 40°40' W 074°04'0 0.0
2014-Oct-01 18:34N 40°40' W 074°04'1 0.9
2014-Oct-01 17:34N 40°39' W 074°05'1 0.9
2014-Oct-01 16:34N 40°40' W 074°04'3 2.8
2014-Oct-01 15:33N 40°39' W 074°08'2 1.8
2014-Oct-01 14:33N 40°38' W 074°10'0 0.0
2014-Oct-01 13:34N 40°38' W 074°10'0 0.0
2014-Oct-01 12:33N 40°38' W 074°10'0 0.0
2014-Oct-01 11:34N 40°38' W 074°10'5 4.5
2014-Oct-01 10:34N 40°40' W 074°04'4 4.0
2014-Oct-01 09:33N 40°38' W 074°09'1 0.6
2014-Oct-01 08:34N 40°39' W 074°10'0 0.0
2014-Oct-01 07:34N 40°39' W 074°10'7 1.7
2014-Oct-01 03:16N 40°32' W 074°15'0 0.0
2014-Sep-30 23:32N 40°32' W 074°15'5 3.9
2014-Sep-30 22:15N 40°37' W 074°12'2 3.5
2014-Sep-30 21:34N 40°39' W 074°10'0 0.0
2014-Sep-30 20:34N 40°39' W 074°10'0 0.0
2014-Sep-30 19:33N 40°39' W 074°10'0 0.0
2014-Sep-30 18:33N 40°39' W 074°10'0 0.0
2014-Sep-30 17:33N 40°39' W 074°10'0 0.0
2014-Sep-30 16:33N 40°39' W 074°10'0 0.0
2014-Sep-30 15:33N 40°39' W 074°10'7 6.7
2014-Sep-30 14:33N 40°41' W 074°02'3 2.9
2014-Sep-30 13:33N 40°42' W 073°58'2 1.9
2014-Sep-30 12:33N 40°41' W 074°01'7 7.3
2014-Sep-30 11:33N 40°38' W 074°09'0 0.3
2014-Sep-30 10:33N 40°39' W 074°10'0 0.0
2014-Sep-30 09:33N 40°39' W 074°10'0 0.0
2014-Sep-30 08:33N 40°39' W 074°10'0 0.0
2014-Sep-30 07:33N 40°39' W 074°10'0 0.0
2014-Sep-30 06:33N 40°39' W 074°10'0 0.0
2014-Sep-30 05:33N 40°39' W 074°10'0 0.0
2014-Sep-30 04:33N 40°39' W 074°10'0 0.0
2014-Sep-30 03:33N 40°39' W 074°10'0 0.0
2014-Sep-30 02:33N 40°39' W 074°10'0 0.0
2014-Sep-30 01:33N 40°39' W 074°10'0 0.0
2014-Sep-30 00:33N 40°39' W 074°10'0 0.0
2014-Sep-29 23:33N 40°39' W 074°10'0 0.0
2014-Sep-29 22:33N 40°39' W 074°10'0 0.0
2014-Sep-29 21:33N 40°39' W 074°10'0 0.0
2014-Sep-29 20:33N 40°39' W 074°10'0 0.0
2014-Sep-29 19:33N 40°39' W 074°10'0 0.0
2014-Sep-29 18:33N 40°39' W 074°10'0 0.0
2014-Sep-29 17:34N 40°39' W 074°10'0 0.1
2014-Sep-29 16:33N 40°38' W 074°10'4 3.6
2014-Sep-29 15:33N 40°39' W 074°05'0 0.0
2014-Sep-29 14:33N 40°39' W 074°05'0 0.0
2014-Sep-29 13:33N 40°39' W 074°05'0 0.0
2014-Sep-29 12:33N 40°39' W 074°05'0 0.0
2014-Sep-29 11:33N 40°39' W 074°05'0 0.0
2014-Sep-29 10:33N 40°39' W 074°05'0 0.0
2014-Sep-29 09:33N 40°39' W 074°05'0 0.0
2014-Sep-29 08:33N 40°39' W 074°05'0 0.0
2014-Sep-29 07:34N 40°39' W 074°05'0 0.0
2014-Sep-29 06:33N 40°39' W 074°05'0 0.0
2014-Sep-29 05:33N 40°39' W 074°05'0 0.0
2014-Sep-29 04:33N 40°39' W 074°05'0 0.0
2014-Sep-29 03:33N 40°39' W 074°05'0 0.0
2014-Sep-29 02:33N 40°39' W 074°05'0 0.0
2014-Sep-29 01:33N 40°39' W 074°05'0 0.0
2014-Sep-29 00:33N 40°39' W 074°05'0 0.0
2014-Sep-28 23:33N 40°39' W 074°05'0 0.0
2014-Sep-28 22:33N 40°39' W 074°05'1 1.4
2014-Sep-28 21:33N 40°39' W 074°03'0 0.4
2014-Sep-28 20:33N 40°39' W 074°03'0 0.0
2014-Sep-28 19:33N 40°39' W 074°03'0 0.1
2014-Sep-28 18:33N 40°39' W 074°03'0 0.1
2014-Sep-28 17:33N 40°40' W 074°03'0 0.0
2014-Sep-28 16:33N 40°40' W 074°03'0 0.0
2014-Sep-28 15:33N 40°40' W 074°03'0 0.0
2014-Sep-28 14:33N 40°40' W 074°03'0 0.0
2014-Sep-28 13:33N 40°39' W 074°03'0 0.2
2014-Sep-28 12:33N 40°39' W 074°03'0 0.0
2014-Sep-28 11:33N 40°39' W 074°03'0 0.0
2014-Sep-28 10:33N 40°39' W 074°03'0 0.0
2014-Sep-28 09:33N 40°39' W 074°03'0 0.0
2014-Sep-28 08:33N 40°39' W 074°03'0 0.0
2014-Sep-28 07:33N 40°39' W 074°03'0 0.0
2014-Sep-28 06:33N 40°39' W 074°03'0 0.2
2014-Sep-28 05:33N 40°40' W 074°03'0 0.0
2014-Sep-28 04:33N 40°40' W 074°03'0 0.0
2014-Sep-28 03:33N 40°40' W 074°03'0 0.0
2014-Sep-28 02:33N 40°40' W 074°03'0 0.0
2014-Sep-28 01:33N 40°39' W 074°03'0 0.1
2014-Sep-28 00:33N 40°39' W 074°03'0 0.1
2014-Sep-27 23:33N 40°39' W 074°03'0 0.0
2014-Sep-27 22:30N 40°39' W 074°03'0 0.0
2014-Sep-27 21:23N 40°39' W 074°03'0 0.0
2014-Sep-27 19:15N 40°39' W 074°03'0 0.1
2014-Sep-27 17:18N 40°39' W 074°03'0 0.1
2014-Sep-27 16:31N 40°40' W 074°03'0 0.0
2014-Sep-27 15:33N 40°40' W 074°03'0 0.1
2014-Sep-27 14:30N 40°40' W 074°03'0 0.0
2014-Sep-27 13:33N 40°39' W 074°03'0 0.1
2014-Sep-27 12:33N 40°39' W 074°03'0 0.1
2014-Sep-27 10:33N 40°39' W 074°03'0 0.0
2014-Sep-27 09:30N 40°39' W 074°03'0 0.0
2014-Sep-27 08:30N 40°39' W 074°03'0 0.0
2014-Sep-27 07:31N 40°39' W 074°03'0 0.0
2014-Sep-27 06:33N 40°39' W 074°03'0 0.0
2014-Sep-27 05:33N 40°39' W 074°03'0 0.2
2014-Sep-27 04:33N 40°39' W 074°03'3 2.6
2014-Sep-27 03:33N 40°39' W 074°06'8 4.0
2014-Sep-27 01:31N 40°33' W 074°14'0 0.0
2014-Sep-27 00:33N 40°33' W 074°14'0 0.0
2014-Sep-26 23:20N 40°33' W 074°14'0 0.0
2014-Sep-26 22:25N 40°33' W 074°14'0 0.0
2014-Sep-26 21:33N 40°33' W 074°14'0 0.0
2014-Sep-26 17:28N 40°33' W 074°14'0 0.0
2014-Sep-26 16:18N 40°33' W 074°14'0 0.0
2014-Sep-26 15:13N 40°33' W 074°14'0 0.0
2014-Sep-26 13:27N 40°33' W 074°14'0 0.0
2014-Sep-26 12:24N 40°33' W 074°14'6 0.3
2014-Sep-25 17:30N 40°39' W 074°10'4 3.3
2014-Sep-25 16:10N 40°39' W 074°04'0 0.4
2014-Sep-25 15:33N 40°39' W 074°04'2 0.5
2014-Sep-25 12:32N 40°39' W 074°06'0 0.0
2014-Sep-25 11:33N 40°39' W 074°06'0 0.0
2014-Sep-25 10:33N 40°39' W 074°06'0 0.0
2014-Sep-25 09:33N 40°39' W 074°06'0 0.0
2014-Sep-25 08:33N 40°39' W 074°06'0 0.0
2014-Sep-25 07:33N 40°39' W 074°06'0 0.0
2014-Sep-25 06:33N 40°39' W 074°06'0 0.0
2014-Sep-25 05:32N 40°39' W 074°06'0 0.0
2014-Sep-25 04:33N 40°39' W 074°06'0 0.0
2014-Sep-25 03:07N 40°39' W 074°06'0 0.0
2014-Sep-25 02:33N 40°39' W 074°06'0 0.0
2014-Sep-25 01:33N 40°39' W 074°06'0 0.0
2014-Sep-25 00:32N 40°39' W 074°06'0 0.0
2014-Sep-24 23:33N 40°39' W 074°06'0 0.1
2014-Sep-24 22:32N 40°39' W 074°06'3 3.1
2014-Sep-24 21:33N 40°40' W 074°02'0 0.1
2014-Sep-24 20:33N 40°40' W 074°02'0 0.0
2014-Sep-24 19:33N 40°40' W 074°02'0 0.0
2014-Sep-24 18:33N 40°40' W 074°02'0 0.0
2014-Sep-24 17:33N 40°40' W 074°02'0 0.0
2014-Sep-24 16:33N 40°40' W 074°02'0 0.0
2014-Sep-24 15:33N 40°40' W 074°02'0 0.2
2014-Sep-24 14:33N 40°40' W 074°02'0 0.1
2014-Sep-24 13:33N 40°40' W 074°02'0 0.1
2014-Sep-24 12:33N 40°40' W 074°02'0 0.0
2014-Sep-24 11:33N 40°40' W 074°02'0 0.0
2014-Sep-24 10:33N 40°40' W 074°02'0 0.1
2014-Sep-24 09:33N 40°40' W 074°02'0 0.1
2014-Sep-24 08:33N 40°40' W 074°02'0 0.0
2014-Sep-24 07:33N 40°40' W 074°02'0 0.0
2014-Sep-24 06:33N 40°40' W 074°02'0 0.1
2014-Sep-24 05:33N 40°39' W 074°02'2 2.0
2014-Sep-24 04:33N 40°39' W 074°05'0 0.0
2014-Sep-24 03:33N 40°39' W 074°05'0 0.0
2014-Sep-24 02:33N 40°39' W 074°05'0 0.0
2014-Sep-24 01:33N 40°39' W 074°05'0 0.0
2014-Sep-24 00:33N 40°39' W 074°05'0 0.0
2014-Sep-23 23:33N 40°39' W 074°05'0 0.0
2014-Sep-23 22:33N 40°39' W 074°05'0 0.0
2014-Sep-23 21:33N 40°39' W 074°05'0 0.0
2014-Sep-23 20:33N 40°39' W 074°05'0 0.0
2014-Sep-23 19:33N 40°39' W 074°05'0 0.0
2014-Sep-23 18:33N 40°39' W 074°05'0 0.0
2014-Sep-23 17:33N 40°39' W 074°05'0 0.0
2014-Sep-23 16:33N 40°39' W 074°05'0 0.0
2014-Sep-23 15:33N 40°39' W 074°05'0 0.0
2014-Sep-23 14:33N 40°39' W 074°05'0 0.0
2014-Sep-23 13:33N 40°39' W 074°05'0 0.0
2014-Sep-23 12:33N 40°39' W 074°05'0 0.0
2014-Sep-23 11:33N 40°39' W 074°05'0 0.0
2014-Sep-23 10:33N 40°39' W 074°05'0 0.0
2014-Sep-23 09:33N 40°39' W 074°05'0 0.0
2014-Sep-23 08:33N 40°39' W 074°05'0 0.0
2014-Sep-23 07:33N 40°39' W 074°05'0 0.0
2014-Sep-23 06:33N 40°39' W 074°05'1 0.5
2014-Sep-23 05:33N 40°39' W 074°06'3 3.3
2014-Sep-23 04:33N 40°39' W 074°10'0 0.0
2014-Sep-23 03:33N 40°39' W 074°10'0 0.0
2014-Sep-23 02:33N 40°39' W 074°10'0 0.0
2014-Sep-23 01:33N 40°39' W 074°10'0 0.0
2014-Sep-23 00:33N 40°39' W 074°10'5 4.9
2014-Sep-22 23:33N 40°39' W 074°03'5 4.6
2014-Sep-22 22:31N 40°38' W 074°10'0 0.1
2014-Sep-22 21:33N 40°39' W 074°10'0 0.0
2014-Sep-22 20:33N 40°39' W 074°10'0 0.0
2014-Sep-22 19:33N 40°39' W 074°10'0 0.0
2014-Sep-22 18:33N 40°39' W 074°10'0 0.0
2014-Sep-22 17:33N 40°39' W 074°10'0 0.0
2014-Sep-22 16:33N 40°39' W 074°10'0 0.0
2014-Sep-22 15:33N 40°39' W 074°10'0 0.0
2014-Sep-22 14:33N 40°39' W 074°10'0 0.0
2014-Sep-22 13:33N 40°39' W 074°10'0 0.0
2014-Sep-22 12:33N 40°39' W 074°10'0 0.0
2014-Sep-22 11:33N 40°39' W 074°10'0 0.0
2014-Sep-22 10:33N 40°39' W 074°10'0 0.0
2014-Sep-22 09:33N 40°39' W 074°10'0 0.0
2014-Sep-22 08:33N 40°39' W 074°10'0 0.0
2014-Sep-22 07:33N 40°39' W 074°10'0 0.0
2014-Sep-22 06:33N 40°39' W 074°10'0 0.0
2014-Sep-22 05:33N 40°39' W 074°10'0 0.0
2014-Sep-22 04:33N 40°39' W 074°10'0 0.0
2014-Sep-22 03:33N 40°39' W 074°10'0 0.0
2014-Sep-22 02:33N 40°39' W 074°10'  
Track history (hours):
 
Tides and Currents Weather Stations Pressure Air Temp Water Temp Dewpoint Dewpoint Depression Visibility Wind Speed Wind Dir Waves Ship Positions

RoSS Sea

Owner: Kirby Inland Marine, LP, Houston, TX. More information available from US FCC via Universal Licensing System and Coast Guard Vessel Documentation Center.

Last reported at 2014-Oct-02 01:34 UTC. Time now 2014-Oct-02 02:33 UTC.
Position N 40°39' W 074°10'.

Length 30 m; draft 5 m.

Type: Towing. MMSI: 367334360.

Date/timePositionNaut miles runAvg speedWind from/ knotsBaromVisibWave heightAir tempDewpointWater temp
2014-Oct-02 01:34N 40°39' W 074°10'0 0.0
2014-Oct-02 00:34N 40°39' W 074°10'0 0.0
2014-Oct-01 23:33N 40°39' W 074°10'0 0.0
2014-Oct-01 22:34N 40°39' W 074°10'0 0.0
2014-Oct-01 21:34N 40°39' W 074°10'2 1.7
2014-Oct-01 20:33N 40°39' W 074°08'3 2.9
2014-Oct-01 19:33N 40°40' W 074°04'0 0.0
2014-Oct-01 18:34N 40°40' W 074°04'1 0.9
2014-Oct-01 17:34N 40°39' W 074°05'1 0.9
2014-Oct-01 16:34N 40°40' W 074°04'3 2.8
2014-Oct-01 15:33N 40°39' W 074°08'2 1.8
2014-Oct-01 14:33N 40°38' W 074°10'0 0.0
2014-Oct-01 13:34N 40°38' W 074°10'0 0.0
2014-Oct-01 12:33N 40°38' W 074°10'0 0.0
2014-Oct-01 11:34N 40°38' W 074°10'5 4.5
2014-Oct-01 10:34N 40°40' W 074°04'4 4.0
2014-Oct-01 09:33N 40°38' W 074°09'1 0.6
2014-Oct-01 08:34N 40°39' W 074°10'0 0.0
2014-Oct-01 07:34N 40°39' W 074°10'7 1.7
2014-Oct-01 03:16N 40°32' W 074°15'0 0.0
2014-Sep-30 23:32N 40°32' W 074°15'5 3.9
2014-Sep-30 22:15N 40°37' W 074°12'2 3.5
2014-Sep-30 21:34N 40°39' W 074°10'0 0.0
2014-Sep-30 20:34N 40°39' W 074°10'0 0.0
2014-Sep-30 19:33N 40°39' W 074°10'0 0.0
2014-Sep-30 18:33N 40°39' W 074°10'0 0.0
2014-Sep-30 17:33N 40°39' W 074°10'0 0.0
2014-Sep-30 16:33N 40°39' W 074°10'0 0.0
2014-Sep-30 15:33N 40°39' W 074°10'7 6.7
2014-Sep-30 14:33N 40°41' W 074°02'3 2.9
2014-Sep-30 13:33N 40°42' W 073°58'2 1.9
2014-Sep-30 12:33N 40°41' W 074°01'7 7.3
2014-Sep-30 11:33N 40°38' W 074°09'0 0.3
2014-Sep-30 10:33N 40°39' W 074°10'0 0.0
2014-Sep-30 09:33N 40°39' W 074°10'0 0.0
2014-Sep-30 08:33N 40°39' W 074°10'0 0.0
2014-Sep-30 07:33N 40°39' W 074°10'0 0.0
2014-Sep-30 06:33N 40°39' W 074°10'0 0.0
2014-Sep-30 05:33N 40°39' W 074°10'0 0.0
2014-Sep-30 04:33N 40°39' W 074°10'0 0.0
2014-Sep-30 03:33N 40°39' W 074°10'0 0.0
2014-Sep-30 02:33N 40°39' W 074°10'0 0.0
2014-Sep-30 01:33N 40°39' W 074°10'0 0.0
2014-Sep-30 00:33N 40°39' W 074°10'0 0.0
2014-Sep-29 23:33N 40°39' W 074°10'0 0.0
2014-Sep-29 22:33N 40°39' W 074°10'0 0.0
2014-Sep-29 21:33N 40°39' W 074°10'0 0.0
2014-Sep-29 20:33N 40°39' W 074°10'0 0.0
2014-Sep-29 19:33N 40°39' W 074°10'0 0.0
2014-Sep-29 18:33N 40°39' W 074°10'0 0.0
2014-Sep-29 17:34N 40°39' W 074°10'0 0.1
2014-Sep-29 16:33N 40°38' W 074°10'4 3.6
2014-Sep-29 15:33N 40°39' W 074°05'0 0.0
2014-Sep-29 14:33N 40°39' W 074°05'0 0.0
2014-Sep-29 13:33N 40°39' W 074°05'0 0.0
2014-Sep-29 12:33N 40°39' W 074°05'0 0.0
2014-Sep-29 11:33N 40°39' W 074°05'0 0.0
2014-Sep-29 10:33N 40°39' W 074°05'0 0.0
2014-Sep-29 09:33N 40°39' W 074°05'0 0.0
2014-Sep-29 08:33N 40°39' W 074°05'0 0.0
2014-Sep-29 07:34N 40°39' W 074°05'0 0.0
2014-Sep-29 06:33N 40°39' W 074°05'0 0.0
2014-Sep-29 05:33N 40°39' W 074°05'0 0.0
2014-Sep-29 04:33N 40°39' W 074°05'0 0.0
2014-Sep-29 03:33N 40°39' W 074°05'0 0.0
2014-Sep-29 02:33N 40°39' W 074°05'0 0.0
2014-Sep-29 01:33N 40°39' W 074°05'0 0.0
2014-Sep-29 00:33N 40°39' W 074°05'0 0.0
2014-Sep-28 23:33N 40°39' W 074°05'0 0.0
2014-Sep-28 22:33N 40°39' W 074°05'1 1.4
2014-Sep-28 21:33N 40°39' W 074°03'0 0.4
2014-Sep-28 20:33N 40°39' W 074°03'0 0.0
2014-Sep-28 19:33N 40°39' W 074°03'0 0.1
2014-Sep-28 18:33N 40°39' W 074°03'0 0.1
2014-Sep-28 17:33N 40°40' W 074°03'0 0.0
2014-Sep-28 16:33N 40°40' W 074°03'0 0.0
2014-Sep-28 15:33N 40°40' W 074°03'0 0.0
2014-Sep-28 14:33N 40°40' W 074°03'0 0.0
2014-Sep-28 13:33N 40°39' W 074°03'0 0.2
2014-Sep-28 12:33N 40°39' W 074°03'0 0.0
2014-Sep-28 11:33N 40°39' W 074°03'0 0.0
2014-Sep-28 10:33N 40°39' W 074°03'0 0.0
2014-Sep-28 09:33N 40°39' W 074°03'0 0.0
2014-Sep-28 08:33N 40°39' W 074°03'0 0.0
2014-Sep-28 07:33N 40°39' W 074°03'0 0.0
2014-Sep-28 06:33N 40°39' W 074°03'0 0.2
2014-Sep-28 05:33N 40°40' W 074°03'0 0.0
2014-Sep-28 04:33N 40°40' W 074°03'0 0.0
2014-Sep-28 03:33N 40°40' W 074°03'0 0.0
2014-Sep-28 02:33N 40°40' W 074°03'0 0.0
2014-Sep-28 01:33N 40°39' W 074°03'0 0.1
2014-Sep-28 00:33N 40°39' W 074°03'0 0.1
2014-Sep-27 23:33N 40°39' W 074°03'0 0.0
2014-Sep-27 22:30N 40°39' W 074°03'0 0.0
2014-Sep-27 21:23N 40°39' W 074°03'0 0.0
2014-Sep-27 19:15N 40°39' W 074°03'0 0.1
2014-Sep-27 17:18N 40°39' W 074°03'0 0.1
2014-Sep-27 16:31N 40°40' W 074°03'0 0.0
2014-Sep-27 15:33N 40°40' W 074°03'0 0.1
2014-Sep-27 14:30N 40°40' W 074°03'0 0.0
2014-Sep-27 13:33N 40°39' W 074°03'0 0.1
2014-Sep-27 12:33N 40°39' W 074°03'0 0.1
2014-Sep-27 10:33N 40°39' W 074°03'0 0.0
2014-Sep-27 09:30N 40°39' W 074°03'0 0.0
2014-Sep-27 08:30N 40°39' W 074°03'0 0.0
2014-Sep-27 07:31N 40°39' W 074°03'0 0.0
2014-Sep-27 06:33N 40°39' W 074°03'0 0.0
2014-Sep-27 05:33N 40°39' W 074°03'0 0.2
2014-Sep-27 04:33N 40°39' W 074°03'3 2.6
2014-Sep-27 03:33N 40°39' W 074°06'8 4.0
2014-Sep-27 01:31N 40°33' W 074°14'0 0.0
2014-Sep-27 00:33N 40°33' W 074°14'0 0.0
2014-Sep-26 23:20N 40°33' W 074°14'0 0.0
2014-Sep-26 22:25N 40°33' W 074°14'0 0.0
2014-Sep-26 21:33N 40°33' W 074°14'0 0.0
2014-Sep-26 17:28N 40°33' W 074°14'0 0.0
2014-Sep-26 16:18N 40°33' W 074°14'0 0.0
2014-Sep-26 15:13N 40°33' W 074°14'0 0.0
2014-Sep-26 13:27N 40°33' W 074°14'0 0.0
2014-Sep-26 12:24N 40°33' W 074°14'6 0.3
2014-Sep-25 17:30N 40°39' W 074°10'4 3.3
2014-Sep-25 16:10N 40°39' W 074°04'0 0.4
2014-Sep-25 15:33N 40°39' W 074°04'2 0.5
2014-Sep-25 12:32N 40°39' W 074°06'0 0.0
2014-Sep-25 11:33N 40°39' W 074°06'0 0.0
2014-Sep-25 10:33N 40°39' W 074°06'0 0.0
2014-Sep-25 09:33N 40°39' W 074°06'0 0.0
2014-Sep-25 08:33N 40°39' W 074°06'0 0.0
2014-Sep-25 07:33N 40°39' W 074°06'0 0.0
2014-Sep-25 06:33N 40°39' W 074°06'0 0.0
2014-Sep-25 05:32N 40°39' W 074°06'0 0.0
2014-Sep-25 04:33N 40°39' W 074°06'0 0.0
2014-Sep-25 03:07N 40°39' W 074°06'0 0.0
2014-Sep-25 02:33N 40°39' W 074°06'0 0.0
2014-Sep-25 01:33N 40°39' W 074°06'0 0.0
2014-Sep-25 00:32N 40°39' W 074°06'0 0.0
2014-Sep-24 23:33N 40°39' W 074°06'0 0.1
2014-Sep-24 22:32N 40°39' W 074°06'3 3.1
2014-Sep-24 21:33N 40°40' W 074°02'0 0.1
2014-Sep-24 20:33N 40°40' W 074°02'0 0.0
2014-Sep-24 19:33N 40°40' W 074°02'0 0.0
2014-Sep-24 18:33N 40°40' W 074°02'0 0.0
2014-Sep-24 17:33N 40°40' W 074°02'0 0.0
2014-Sep-24 16:33N 40°40' W 074°02'0 0.0
2014-Sep-24 15:33N 40°40' W 074°02'0 0.2
2014-Sep-24 14:33N 40°40' W 074°02'0 0.1
2014-Sep-24 13:33N 40°40' W 074°02'0 0.1
2014-Sep-24 12:33N 40°40' W 074°02'0 0.0
2014-Sep-24 11:33N 40°40' W 074°02'0 0.0
2014-Sep-24 10:33N 40°40' W 074°02'0 0.1
2014-Sep-24 09:33N 40°40' W 074°02'0 0.1
2014-Sep-24 08:33N 40°40' W 074°02'0 0.0
2014-Sep-24 07:33N 40°40' W 074°02'0 0.0
2014-Sep-24 06:33N 40°40' W 074°02'0 0.1
2014-Sep-24 05:33N 40°39' W 074°02'2 2.0
2014-Sep-24 04:33N 40°39' W 074°05'0 0.0
2014-Sep-24 03:33N 40°39' W 074°05'0 0.0
2014-Sep-24 02:33N 40°39' W 074°05'0 0.0
2014-Sep-24 01:33N 40°39' W 074°05'0 0.0
2014-Sep-24 00:33N 40°39' W 074°05'0 0.0
2014-Sep-23 23:33N 40°39' W 074°05'0 0.0
2014-Sep-23 22:33N 40°39' W 074°05'0 0.0
2014-Sep-23 21:33N 40°39' W 074°05'0 0.0
2014-Sep-23 20:33N 40°39' W 074°05'0 0.0
2014-Sep-23 19:33N 40°39' W 074°05'0 0.0
2014-Sep-23 18:33N 40°39' W 074°05'0 0.0
2014-Sep-23 17:33N 40°39' W 074°05'0 0.0
2014-Sep-23 16:33N 40°39' W 074°05'0 0.0
2014-Sep-23 15:33N 40°39' W 074°05'0 0.0
2014-Sep-23 14:33N 40°39' W 074°05'0 0.0
2014-Sep-23 13:33N 40°39' W 074°05'0 0.0
2014-Sep-23 12:33N 40°39' W 074°05'0 0.0
2014-Sep-23 11:33N 40°39' W 074°05'0 0.0
2014-Sep-23 10:33N 40°39' W 074°05'0 0.0
2014-Sep-23 09:33N 40°39' W 074°05'0 0.0
2014-Sep-23 08:33N 40°39' W 074°05'0 0.0
2014-Sep-23 07:33N 40°39' W 074°05'0 0.0
2014-Sep-23 06:33N 40°39' W 074°05'1 0.5
2014-Sep-23 05:33N 40°39' W 074°06'3 3.3
2014-Sep-23 04:33N 40°39' W 074°10'0 0.0
2014-Sep-23 03:33N 40°39' W 074°10'0 0.0
2014-Sep-23 02:33N 40°39' W 074°10'0 0.0
2014-Sep-23 01:33N 40°39' W 074°10'0 0.0
2014-Sep-23 00:33N 40°39' W 074°10'5 4.9
2014-Sep-22 23:33N 40°39' W 074°03'5 4.6
2014-Sep-22 22:31N 40°38' W 074°10'0 0.1
2014-Sep-22 21:33N 40°39' W 074°10'0 0.0
2014-Sep-22 20:33N 40°39' W 074°10'0 0.0
2014-Sep-22 19:33N 40°39' W 074°10'0 0.0
2014-Sep-22 18:33N 40°39' W 074°10'0 0.0
2014-Sep-22 17:33N 40°39' W 074°10'0 0.0
2014-Sep-22 16:33N 40°39' W 074°10'0 0.0
2014-Sep-22 15:33N 40°39' W 074°10'0 0.0
2014-Sep-22 14:33N 40°39' W 074°10'0 0.0
2014-Sep-22 13:33N 40°39' W 074°10'0 0.0
2014-Sep-22 12:33N 40°39' W 074°10'0 0.0
2014-Sep-22 11:33N 40°39' W 074°10'0 0.0
2014-Sep-22 10:33N 40°39' W 074°10'0 0.0
2014-Sep-22 09:33N 40°39' W 074°10'0 0.0
2014-Sep-22 08:33N 40°39' W 074°10'0 0.0
2014-Sep-22 07:33N 40°39' W 074°10'0 0.0
2014-Sep-22 06:33N 40°39' W 074°10'0 0.0
2014-Sep-22 05:33N 40°39' W 074°10'0 0.0
2014-Sep-22 04:33N 40°39' W 074°10'0 0.0
2014-Sep-22 03:33N 40°39' W 074°10'0 0.0
2014-Sep-22 02:33N 40°39' W 074°10'  

Dump ship's entire track history